sensor_id;sensor_type;location;lat;lon;timestamp;P1;durP1;ratioP1;P2;durP2;ratioP2
12818;SDS011;6474;53.474;9.894;2022-11-15T00:01:00;15.80;;;7.93;;
12818;SDS011;6474;53.474;9.894;2022-11-15T00:03:28;12.73;;;7.83;;
12818;SDS011;6474;53.474;9.894;2022-11-15T00:06:00;12.97;;;7.60;;
12818;SDS011;6474;53.474;9.894;2022-11-15T00:08:29;8.50;;;5.70;;
12818;SDS011;6474;53.474;9.894;2022-11-15T00:10:59;14.77;;;6.63;;
12818;SDS011;6474;53.474;9.894;2022-11-15T00:13:30;8.70;;;6.53;;
12818;SDS011;6474;53.474;9.894;2022-11-15T00:15:58;13.13;;;7.07;;
12818;SDS011;6474;53.474;9.894;2022-11-15T00:18:28;9.83;;;6.47;;
12818;SDS011;6474;53.474;9.894;2022-11-15T00:20:56;13.97;;;7.50;;
12818;SDS011;6474;53.474;9.894;2022-11-15T00:23:30;9.33;;;6.97;;
12818;SDS011;6474;53.474;9.894;2022-11-15T00:25:59;17.30;;;7.00;;
12818;SDS011;6474;53.474;9.894;2022-11-15T00:28:27;10.27;;;7.03;;
12818;SDS011;6474;53.474;9.894;2022-11-15T00:31:00;10.73;;;7.67;;
12818;SDS011;6474;53.474;9.894;2022-11-15T00:33:29;11.83;;;6.00;;
12818;SDS011;6474;53.474;9.894;2022-11-15T00:36:01;8.57;;;6.33;;
12818;SDS011;6474;53.474;9.894;2022-11-15T00:38:30;10.07;;;6.73;;
12818;SDS011;6474;53.474;9.894;2022-11-15T00:40:59;9.87;;;6.43;;
12818;SDS011;6474;53.474;9.894;2022-11-15T00:43:34;9.00;;;6.70;;
12818;SDS011;6474;53.474;9.894;2022-11-15T00:46:04;15.93;;;7.37;;
12818;SDS011;6474;53.474;9.894;2022-11-15T00:48:31;11.97;;;7.27;;
12818;SDS011;6474;53.474;9.894;2022-11-15T00:50:59;10.40;;;7.47;;
12818;SDS011;6474;53.474;9.894;2022-11-15T00:53:27;13.97;;;6.63;;
12818;SDS011;6474;53.474;9.894;2022-11-15T00:55:56;8.63;;;5.63;;
12818;SDS011;6474;53.474;9.894;2022-11-15T00:58:23;11.37;;;6.90;;
12818;SDS011;6474;53.474;9.894;2022-11-15T01:00:51;13.23;;;6.20;;
12818;SDS011;6474;53.474;9.894;2022-11-15T01:03:20;14.73;;;7.63;;
12818;SDS011;6474;53.474;9.894;2022-11-15T01:05:48;13.83;;;7.60;;
12818;SDS011;6474;53.474;9.894;2022-11-15T01:08:16;10.00;;;5.77;;
12818;SDS011;6474;53.474;9.894;2022-11-15T01:10:43;9.00;;;5.53;;
12818;SDS011;6474;53.474;9.894;2022-11-15T01:13:13;9.90;;;5.33;;
12818;SDS011;6474;53.474;9.894;2022-11-15T01:15:41;13.10;;;6.57;;
12818;SDS011;6474;53.474;9.894;2022-11-15T01:18:09;12.07;;;5.77;;
12818;SDS011;6474;53.474;9.894;2022-11-15T01:20:40;11.00;;;6.13;;
12818;SDS011;6474;53.474;9.894;2022-11-15T01:23:08;12.87;;;7.43;;
12818;SDS011;6474;53.474;9.894;2022-11-15T01:25:37;4.77;;;4.37;;
12818;SDS011;6474;53.474;9.894;2022-11-15T01:28:04;8.60;;;6.27;;
12818;SDS011;6474;53.474;9.894;2022-11-15T01:30:32;11.43;;;6.13;;
12818;SDS011;6474;53.474;9.894;2022-11-15T01:33:00;10.40;;;5.63;;
12818;SDS011;6474;53.474;9.894;2022-11-15T01:35:28;7.77;;;4.87;;
12818;SDS011;6474;53.474;9.894;2022-11-15T01:37:57;12.57;;;5.43;;
12818;SDS011;6474;53.474;9.894;2022-11-15T01:40:25;8.40;;;5.77;;
12818;SDS011;6474;53.474;9.894;2022-11-15T01:42:53;15.17;;;5.93;;
12818;SDS011;6474;53.474;9.894;2022-11-15T01:45:21;9.37;;;6.40;;
12818;SDS011;6474;53.474;9.894;2022-11-15T01:47:50;9.33;;;5.73;;
12818;SDS011;6474;53.474;9.894;2022-11-15T01:50:21;12.23;;;5.93;;
12818;SDS011;6474;53.474;9.894;2022-11-15T01:52:53;9.37;;;6.23;;
12818;SDS011;6474;53.474;9.894;2022-11-15T01:55:22;8.77;;;5.63;;
12818;SDS011;6474;53.474;9.894;2022-11-15T01:57:55;7.57;;;5.07;;
12818;SDS011;6474;53.474;9.894;2022-11-15T02:00:26;10.20;;;6.37;;
12818;SDS011;6474;53.474;9.894;2022-11-15T02:02:55;7.23;;;5.73;;
12818;SDS011;6474;53.474;9.894;2022-11-15T02:05:23;16.67;;;6.67;;
12818;SDS011;6474;53.474;9.894;2022-11-15T02:07:51;8.00;;;6.13;;
12818;SDS011;6474;53.474;9.894;2022-11-15T02:10:22;7.97;;;5.87;;
12818;SDS011;6474;53.474;9.894;2022-11-15T02:12:51;11.63;;;5.00;;
12818;SDS011;6474;53.474;9.894;2022-11-15T02:15:19;8.03;;;5.13;;
12818;SDS011;6474;53.474;9.894;2022-11-15T02:17:54;9.30;;;5.00;;
12818;SDS011;6474;53.474;9.894;2022-11-15T02:20:34;6.13;;;4.57;;
12818;SDS011;6474;53.474;9.894;2022-11-15T02:23:18;7.80;;;5.13;;
12818;SDS011;6474;53.474;9.894;2022-11-15T02:26:16;12.10;;;5.73;;
12818;SDS011;6474;53.474;9.894;2022-11-15T02:28:59;8.97;;;5.67;;
12818;SDS011;6474;53.474;9.894;2022-11-15T02:31:33;7.00;;;5.00;;
12818;SDS011;6474;53.474;9.894;2022-11-15T02:34:08;9.80;;;5.07;;
12818;SDS011;6474;53.474;9.894;2022-11-15T02:36:43;9.27;;;6.00;;
12818;SDS011;6474;53.474;9.894;2022-11-15T02:39:19;8.27;;;5.23;;
12818;SDS011;6474;53.474;9.894;2022-11-15T02:41:57;4.63;;;4.23;;
12818;SDS011;6474;53.474;9.894;2022-11-15T02:44:29;7.27;;;5.07;;
12818;SDS011;6474;53.474;9.894;2022-11-15T02:47:06;12.37;;;5.30;;
12818;SDS011;6474;53.474;9.894;2022-11-15T02:49:43;14.10;;;5.43;;
12818;SDS011;6474;53.474;9.894;2022-11-15T02:52:14;5.93;;;4.70;;
12818;SDS011;6474;53.474;9.894;2022-11-15T02:54:52;8.67;;;4.70;;
12818;SDS011;6474;53.474;9.894;2022-11-15T02:57:23;6.53;;;5.27;;
12818;SDS011;6474;53.474;9.894;2022-11-15T03:00:05;6.03;;;5.33;;
12818;SDS011;6474;53.474;9.894;2022-11-15T03:02:39;10.20;;;4.73;;
12818;SDS011;6474;53.474;9.894;2022-11-15T03:05:15;6.83;;;5.33;;
12818;SDS011;6474;53.474;9.894;2022-11-15T03:07:51;7.70;;;5.83;;
12818;SDS011;6474;53.474;9.894;2022-11-15T03:10:31;5.63;;;4.97;;
12818;SDS011;6474;53.474;9.894;2022-11-15T03:13:10;5.47;;;4.13;;
12818;SDS011;6474;53.474;9.894;2022-11-15T03:15:48;12.33;;;6.53;;
12818;SDS011;6474;53.474;9.894;2022-11-15T03:18:23;8.73;;;5.73;;
12818;SDS011;6474;53.474;9.894;2022-11-15T03:20:57;5.87;;;4.77;;
12818;SDS011;6474;53.474;9.894;2022-11-15T03:23:26;6.70;;;5.43;;
12818;SDS011;6474;53.474;9.894;2022-11-15T03:25:58;5.20;;;4.80;;
12818;SDS011;6474;53.474;9.894;2022-11-15T03:28:27;7.07;;;4.50;;
12818;SDS011;6474;53.474;9.894;2022-11-15T03:31:01;7.07;;;5.23;;
12818;SDS011;6474;53.474;9.894;2022-11-15T03:33:53;11.73;;;5.53;;
12818;SDS011;6474;53.474;9.894;2022-11-15T03:36:24;7.97;;;6.17;;
12818;SDS011;6474;53.474;9.894;2022-11-15T03:38:53;21.47;;;7.93;;
12818;SDS011;6474;53.474;9.894;2022-11-15T03:41:24;7.80;;;5.33;;
12818;SDS011;6474;53.474;9.894;2022-11-15T03:43:56;8.60;;;4.53;;
12818;SDS011;6474;53.474;9.894;2022-11-15T03:46:32;7.03;;;5.10;;
12818;SDS011;6474;53.474;9.894;2022-11-15T03:49:06;6.43;;;4.43;;
12818;SDS011;6474;53.474;9.894;2022-11-15T03:51:37;5.53;;;3.97;;
12818;SDS011;6474;53.474;9.894;2022-11-15T03:54:05;5.50;;;4.77;;
12818;SDS011;6474;53.474;9.894;2022-11-15T03:56:34;7.27;;;4.87;;
12818;SDS011;6474;53.474;9.894;2022-11-15T03:59:01;11.20;;;6.07;;
12818;SDS011;6474;53.474;9.894;2022-11-15T04:01:29;18.00;;;5.50;;
12818;SDS011;6474;53.474;9.894;2022-11-15T04:03:57;10.77;;;5.67;;
12818;SDS011;6474;53.474;9.894;2022-11-15T04:06:26;8.20;;;5.27;;
12818;SDS011;6474;53.474;9.894;2022-11-15T04:08:54;10.43;;;6.70;;
12818;SDS011;6474;53.474;9.894;2022-11-15T04:11:21;8.23;;;6.13;;
12818;SDS011;6474;53.474;9.894;2022-11-15T04:13:49;6.73;;;6.03;;
12818;SDS011;6474;53.474;9.894;2022-11-15T04:16:17;10.60;;;5.83;;
12818;SDS011;6474;53.474;9.894;2022-11-15T04:18:45;8.63;;;5.93;;
12818;SDS011;6474;53.474;9.894;2022-11-15T04:21:35;6.47;;;4.43;;
12818;SDS011;6474;53.474;9.894;2022-11-15T04:24:20;7.87;;;5.17;;
12818;SDS011;6474;53.474;9.894;2022-11-15T04:26:48;5.77;;;4.80;;
12818;SDS011;6474;53.474;9.894;2022-11-15T04:29:16;6.87;;;4.17;;
12818;SDS011;6474;53.474;9.894;2022-11-15T04:32:02;8.83;;;5.57;;
12818;SDS011;6474;53.474;9.894;2022-11-15T04:34:31;8.07;;;6.07;;
12818;SDS011;6474;53.474;9.894;2022-11-15T04:37:01;12.03;;;5.10;;
12818;SDS011;6474;53.474;9.894;2022-11-15T04:39:42;8.00;;;5.37;;
12818;SDS011;6474;53.474;9.894;2022-11-15T04:42:10;6.30;;;5.43;;
12818;SDS011;6474;53.474;9.894;2022-11-15T04:44:38;5.80;;;4.87;;
12818;SDS011;6474;53.474;9.894;2022-11-15T04:47:06;7.63;;;5.10;;
12818;SDS011;6474;53.474;9.894;2022-11-15T04:49:33;6.57;;;5.03;;
12818;SDS011;6474;53.474;9.894;2022-11-15T04:52:03;8.03;;;5.50;;
12818;SDS011;6474;53.474;9.894;2022-11-15T04:54:31;10.43;;;5.23;;
12818;SDS011;6474;53.474;9.894;2022-11-15T04:56:58;6.83;;;4.60;;
12818;SDS011;6474;53.474;9.894;2022-11-15T04:59:26;10.73;;;5.90;;
12818;SDS011;6474;53.474;9.894;2022-11-15T05:01:54;7.40;;;5.07;;
12818;SDS011;6474;53.474;9.894;2022-11-15T05:04:22;9.33;;;5.90;;
12818;SDS011;6474;53.474;9.894;2022-11-15T05:06:49;8.07;;;5.30;;
12818;SDS011;6474;53.474;9.894;2022-11-15T05:09:20;7.53;;;5.20;;
12818;SDS011;6474;53.474;9.894;2022-11-15T05:11:48;8.13;;;4.80;;
12818;SDS011;6474;53.474;9.894;2022-11-15T05:14:16;9.43;;;4.33;;
12818;SDS011;6474;53.474;9.894;2022-11-15T05:16:43;7.70;;;4.73;;
12818;SDS011;6474;53.474;9.894;2022-11-15T05:19:11;13.83;;;5.37;;
12818;SDS011;6474;53.474;9.894;2022-11-15T05:21:39;8.20;;;5.53;;
12818;SDS011;6474;53.474;9.894;2022-11-15T05:24:08;7.87;;;4.90;;
12818;SDS011;6474;53.474;9.894;2022-11-15T05:26:38;6.40;;;4.47;;
12818;SDS011;6474;53.474;9.894;2022-11-15T05:29:06;5.23;;;4.73;;
12818;SDS011;6474;53.474;9.894;2022-11-15T05:31:37;9.03;;;4.43;;
12818;SDS011;6474;53.474;9.894;2022-11-15T05:34:07;6.90;;;4.30;;
12818;SDS011;6474;53.474;9.894;2022-11-15T05:36:36;8.83;;;5.17;;
12818;SDS011;6474;53.474;9.894;2022-11-15T05:39:05;5.77;;;3.83;;
12818;SDS011;6474;53.474;9.894;2022-11-15T05:41:35;6.13;;;4.30;;
12818;SDS011;6474;53.474;9.894;2022-11-15T05:44:09;7.20;;;5.20;;
12818;SDS011;6474;53.474;9.894;2022-11-15T05:46:39;5.43;;;4.70;;
12818;SDS011;6474;53.474;9.894;2022-11-15T05:49:09;7.60;;;5.27;;
12818;SDS011;6474;53.474;9.894;2022-11-15T05:51:39;7.93;;;4.67;;
12818;SDS011;6474;53.474;9.894;2022-11-15T05:54:09;4.33;;;3.93;;
12818;SDS011;6474;53.474;9.894;2022-11-15T05:56:39;7.53;;;4.90;;
12818;SDS011;6474;53.474;9.894;2022-11-15T05:59:07;5.80;;;5.00;;
12818;SDS011;6474;53.474;9.894;2022-11-15T06:01:36;8.33;;;5.53;;
12818;SDS011;6474;53.474;9.894;2022-11-15T06:04:05;7.20;;;4.73;;
12818;SDS011;6474;53.474;9.894;2022-11-15T06:06:33;7.33;;;5.13;;
12818;SDS011;6474;53.474;9.894;2022-11-15T06:09:04;5.83;;;5.00;;
12818;SDS011;6474;53.474;9.894;2022-11-15T06:11:32;10.40;;;5.27;;
12818;SDS011;6474;53.474;9.894;2022-11-15T06:14:01;7.33;;;5.97;;
12818;SDS011;6474;53.474;9.894;2022-11-15T06:16:29;7.70;;;5.10;;
12818;SDS011;6474;53.474;9.894;2022-11-15T06:18:57;7.80;;;5.40;;
12818;SDS011;6474;53.474;9.894;2022-11-15T06:21:25;12.47;;;4.90;;
12818;SDS011;6474;53.474;9.894;2022-11-15T06:23:55;5.40;;;4.47;;
12818;SDS011;6474;53.474;9.894;2022-11-15T06:26:22;6.43;;;5.00;;
12818;SDS011;6474;53.474;9.894;2022-11-15T06:28:51;8.87;;;5.77;;
12818;SDS011;6474;53.474;9.894;2022-11-15T06:31:20;5.63;;;4.40;;
12818;SDS011;6474;53.474;9.894;2022-11-15T06:33:47;7.23;;;4.77;;
12818;SDS011;6474;53.474;9.894;2022-11-15T06:36:15;8.10;;;4.67;;
12818;SDS011;6474;53.474;9.894;2022-11-15T06:38:43;5.53;;;4.80;;
12818;SDS011;6474;53.474;9.894;2022-11-15T06:41:12;6.13;;;4.37;;
12818;SDS011;6474;53.474;9.894;2022-11-15T06:43:41;9.13;;;5.00;;
12818;SDS011;6474;53.474;9.894;2022-11-15T06:46:09;5.10;;;4.70;;
12818;SDS011;6474;53.474;9.894;2022-11-15T06:48:38;8.17;;;5.30;;
12818;SDS011;6474;53.474;9.894;2022-11-15T06:51:06;6.20;;;4.70;;
12818;SDS011;6474;53.474;9.894;2022-11-15T06:53:34;9.97;;;5.60;;
12818;SDS011;6474;53.474;9.894;2022-11-15T06:56:02;7.03;;;5.37;;
12818;SDS011;6474;53.474;9.894;2022-11-15T06:58:32;14.07;;;4.67;;
12818;SDS011;6474;53.474;9.894;2022-11-15T07:01:02;4.63;;;4.23;;
12818;SDS011;6474;53.474;9.894;2022-11-15T07:03:31;7.20;;;5.53;;
12818;SDS011;6474;53.474;9.894;2022-11-15T07:06:02;7.40;;;4.47;;
12818;SDS011;6474;53.474;9.894;2022-11-15T07:08:33;7.60;;;4.93;;
12818;SDS011;6474;53.474;9.894;2022-11-15T07:11:02;5.40;;;4.90;;
12818;SDS011;6474;53.474;9.894;2022-11-15T07:13:32;6.43;;;5.10;;
12818;SDS011;6474;53.474;9.894;2022-11-15T07:16:02;7.20;;;5.00;;
12818;SDS011;6474;53.474;9.894;2022-11-15T07:18:30;6.20;;;4.20;;
12818;SDS011;6474;53.474;9.894;2022-11-15T07:21:00;6.37;;;5.07;;
12818;SDS011;6474;53.474;9.894;2022-11-15T07:23:30;6.20;;;4.20;;
12818;SDS011;6474;53.474;9.894;2022-11-15T07:25:59;9.87;;;5.80;;
12818;SDS011;6474;53.474;9.894;2022-11-15T07:28:27;7.90;;;5.47;;
12818;SDS011;6474;53.474;9.894;2022-11-15T07:30:55;6.73;;;4.53;;
12818;SDS011;6474;53.474;9.894;2022-11-15T07:33:23;6.90;;;4.40;;
12818;SDS011;6474;53.474;9.894;2022-11-15T07:35:51;9.90;;;4.33;;
12818;SDS011;6474;53.474;9.894;2022-11-15T07:38:20;5.03;;;4.47;;
12818;SDS011;6474;53.474;9.894;2022-11-15T07:40:55;6.83;;;4.83;;
12818;SDS011;6474;53.474;9.894;2022-11-15T07:43:23;5.60;;;4.07;;
12818;SDS011;6474;53.474;9.894;2022-11-15T07:45:52;7.00;;;3.93;;
12818;SDS011;6474;53.474;9.894;2022-11-15T07:48:24;5.43;;;4.23;;
12818;SDS011;6474;53.474;9.894;2022-11-15T07:51:09;10.67;;;5.07;;
12818;SDS011;6474;53.474;9.894;2022-11-15T07:53:41;7.63;;;5.27;;
12818;SDS011;6474;53.474;9.894;2022-11-15T07:56:09;7.33;;;5.10;;
12818;SDS011;6474;53.474;9.894;2022-11-15T07:58:37;4.53;;;4.17;;
12818;SDS011;6474;53.474;9.894;2022-11-15T08:01:05;4.90;;;4.07;;
12818;SDS011;6474;53.474;9.894;2022-11-15T08:03:35;6.63;;;4.77;;
12818;SDS011;6474;53.474;9.894;2022-11-15T08:06:03;6.00;;;5.37;;
12818;SDS011;6474;53.474;9.894;2022-11-15T08:08:31;4.53;;;4.17;;
12818;SDS011;6474;53.474;9.894;2022-11-15T08:11:00;4.20;;;3.67;;
12818;SDS011;6474;53.474;9.894;2022-11-15T08:13:28;6.37;;;4.37;;
12818;SDS011;6474;53.474;9.894;2022-11-15T08:15:57;6.83;;;4.57;;
12818;SDS011;6474;53.474;9.894;2022-11-15T08:18:26;4.60;;;4.07;;
12818;SDS011;6474;53.474;9.894;2022-11-15T08:20:57;4.63;;;3.97;;
12818;SDS011;6474;53.474;9.894;2022-11-15T08:23:26;6.20;;;4.57;;
12818;SDS011;6474;53.474;9.894;2022-11-15T08:25:58;10.03;;;4.60;;
12818;SDS011;6474;53.474;9.894;2022-11-15T08:28:29;7.40;;;4.80;;
12818;SDS011;6474;53.474;9.894;2022-11-15T08:30:57;7.80;;;5.67;;
12818;SDS011;6474;53.474;9.894;2022-11-15T08:33:25;6.50;;;4.20;;
12818;SDS011;6474;53.474;9.894;2022-11-15T08:35:55;5.43;;;4.80;;
12818;SDS011;6474;53.474;9.894;2022-11-15T08:38:24;4.53;;;4.13;;
12818;SDS011;6474;53.474;9.894;2022-11-15T08:40:52;7.53;;;4.80;;
12818;SDS011;6474;53.474;9.894;2022-11-15T08:43:27;8.70;;;4.70;;
12818;SDS011;6474;53.474;9.894;2022-11-15T08:45:56;5.20;;;4.43;;
12818;SDS011;6474;53.474;9.894;2022-11-15T08:48:24;4.87;;;4.37;;
12818;SDS011;6474;53.474;9.894;2022-11-15T08:50:53;7.70;;;4.70;;
12818;SDS011;6474;53.474;9.894;2022-11-15T08:53:21;4.00;;;3.70;;
12818;SDS011;6474;53.474;9.894;2022-11-15T08:55:50;10.03;;;5.93;;
12818;SDS011;6474;53.474;9.894;2022-11-15T08:58:20;4.40;;;3.73;;
12818;SDS011;6474;53.474;9.894;2022-11-15T09:00:49;6.00;;;4.77;;
12818;SDS011;6474;53.474;9.894;2022-11-15T09:03:17;5.00;;;4.57;;
12818;SDS011;6474;53.474;9.894;2022-11-15T09:05:45;4.87;;;4.43;;
12818;SDS011;6474;53.474;9.894;2022-11-15T09:08:12;8.77;;;4.83;;
12818;SDS011;6474;53.474;9.894;2022-11-15T09:11:02;11.73;;;4.83;;
12818;SDS011;6474;53.474;9.894;2022-11-15T09:13:30;6.23;;;4.90;;
12818;SDS011;6474;53.474;9.894;2022-11-15T09:15:59;7.50;;;4.37;;
12818;SDS011;6474;53.474;9.894;2022-11-15T09:18:27;6.10;;;4.93;;
12818;SDS011;6474;53.474;9.894;2022-11-15T09:20:56;5.60;;;4.90;;
12818;SDS011;6474;53.474;9.894;2022-11-15T09:23:25;5.33;;;4.43;;
12818;SDS011;6474;53.474;9.894;2022-11-15T09:25:57;4.10;;;3.70;;
12818;SDS011;6474;53.474;9.894;2022-11-15T09:28:26;6.83;;;4.70;;
12818;SDS011;6474;53.474;9.894;2022-11-15T09:30:55;4.30;;;3.90;;
12818;SDS011;6474;53.474;9.894;2022-11-15T09:33:26;4.13;;;3.77;;
12818;SDS011;6474;53.474;9.894;2022-11-15T09:35:59;4.50;;;4.10;;
12818;SDS011;6474;53.474;9.894;2022-11-15T09:38:28;3.50;;;3.23;;
12818;SDS011;6474;53.474;9.894;2022-11-15T09:40:59;5.60;;;4.63;;
12818;SDS011;6474;53.474;9.894;2022-11-15T09:43:51;4.13;;;3.60;;
12818;SDS011;6474;53.474;9.894;2022-11-15T09:46:31;3.37;;;3.07;;
12818;SDS011;6474;53.474;9.894;2022-11-15T09:49:07;4.20;;;3.80;;
12818;SDS011;6474;53.474;9.894;2022-11-15T09:51:37;4.27;;;3.67;;
12818;SDS011;6474;53.474;9.894;2022-11-15T09:54:15;3.30;;;3.00;;
12818;SDS011;6474;53.474;9.894;2022-11-15T09:57:11;3.93;;;3.53;;
12818;SDS011;6474;53.474;9.894;2022-11-15T09:59:49;4.17;;;3.87;;
12818;SDS011;6474;53.474;9.894;2022-11-15T10:02:42;3.97;;;3.67;;
12818;SDS011;6474;53.474;9.894;2022-11-15T10:05:20;4.33;;;3.57;;
12818;SDS011;6474;53.474;9.894;2022-11-15T10:07:51;4.83;;;3.80;;
12818;SDS011;6474;53.474;9.894;2022-11-15T10:10:27;8.47;;;3.40;;
12818;SDS011;6474;53.474;9.894;2022-11-15T10:12:59;3.97;;;3.60;;
12818;SDS011;6474;53.474;9.894;2022-11-15T10:15:27;5.27;;;4.77;;
12818;SDS011;6474;53.474;9.894;2022-11-15T10:17:59;6.03;;;4.50;;
12818;SDS011;6474;53.474;9.894;2022-11-15T10:20:38;4.37;;;3.97;;
12818;SDS011;6474;53.474;9.894;2022-11-15T10:23:15;5.03;;;4.40;;
12818;SDS011;6474;53.474;9.894;2022-11-15T10:25:45;4.03;;;3.77;;
12818;SDS011;6474;53.474;9.894;2022-11-15T10:28:15;4.37;;;3.97;;
12818;SDS011;6474;53.474;9.894;2022-11-15T10:30:44;5.57;;;4.33;;
12818;SDS011;6474;53.474;9.894;2022-11-15T10:33:17;4.60;;;4.20;;
12818;SDS011;6474;53.474;9.894;2022-11-15T10:36:13;4.50;;;4.10;;
12818;SDS011;6474;53.474;9.894;2022-11-15T10:38:53;5.37;;;3.87;;
12818;SDS011;6474;53.474;9.894;2022-11-15T10:41:29;3.70;;;3.50;;
12818;SDS011;6474;53.474;9.894;2022-11-15T10:44:18;4.43;;;3.93;;
12818;SDS011;6474;53.474;9.894;2022-11-15T10:47:03;3.77;;;3.53;;
12818;SDS011;6474;53.474;9.894;2022-11-15T10:49:55;4.87;;;4.03;;
12818;SDS011;6474;53.474;9.894;2022-11-15T10:52:27;4.10;;;3.77;;
12818;SDS011;6474;53.474;9.894;2022-11-15T10:54:58;5.70;;;3.97;;
12818;SDS011;6474;53.474;9.894;2022-11-15T10:57:30;5.90;;;3.60;;
12818;SDS011;6474;53.474;9.894;2022-11-15T11:00:01;4.10;;;3.63;;
12818;SDS011;6474;53.474;9.894;2022-11-15T11:02:33;4.07;;;3.77;;
12818;SDS011;6474;53.474;9.894;2022-11-15T11:05:03;4.47;;;3.80;;
12818;SDS011;6474;53.474;9.894;2022-11-15T11:07:35;5.33;;;3.67;;
12818;SDS011;6474;53.474;9.894;2022-11-15T11:10:05;8.77;;;4.53;;
12818;SDS011;6474;53.474;9.894;2022-11-15T11:13:12;6.43;;;4.73;;
12818;SDS011;6474;53.474;9.894;2022-11-15T11:15:40;3.93;;;3.50;;
12818;SDS011;6474;53.474;9.894;2022-11-15T11:18:13;3.97;;;3.20;;
12818;SDS011;6474;53.474;9.894;2022-11-15T11:20:49;4.73;;;4.33;;
12818;SDS011;6474;53.474;9.894;2022-11-15T11:23:29;4.20;;;3.77;;
12818;SDS011;6474;53.474;9.894;2022-11-15T11:26:13;3.73;;;3.43;;
12818;SDS011;6474;53.474;9.894;2022-11-15T11:28:53;6.70;;;4.53;;
12818;SDS011;6474;53.474;9.894;2022-11-15T11:31:30;4.23;;;3.43;;
12818;SDS011;6474;53.474;9.894;2022-11-15T11:34:10;5.30;;;3.87;;
12818;SDS011;6474;53.474;9.894;2022-11-15T11:36:45;3.87;;;3.10;;
12818;SDS011;6474;53.474;9.894;2022-11-15T11:39:24;3.50;;;3.20;;
12818;SDS011;6474;53.474;9.894;2022-11-15T11:42:01;3.83;;;3.63;;
12818;SDS011;6474;53.474;9.894;2022-11-15T11:44:33;5.33;;;4.50;;
12818;SDS011;6474;53.474;9.894;2022-11-15T11:47:09;6.53;;;3.17;;
12818;SDS011;6474;53.474;9.894;2022-11-15T11:49:39;4.87;;;3.73;;
12818;SDS011;6474;53.474;9.894;2022-11-15T11:52:13;3.97;;;3.70;;
12818;SDS011;6474;53.474;9.894;2022-11-15T11:54:51;3.83;;;3.43;;
12818;SDS011;6474;53.474;9.894;2022-11-15T11:57:29;3.77;;;3.43;;
12818;SDS011;6474;53.474;9.894;2022-11-15T12:00:03;3.83;;;3.43;;
12818;SDS011;6474;53.474;9.894;2022-11-15T12:02:33;5.17;;;3.57;;
12818;SDS011;6474;53.474;9.894;2022-11-15T12:05:09;4.23;;;3.83;;
12818;SDS011;6474;53.474;9.894;2022-11-15T12:07:40;3.37;;;3.07;;
12818;SDS011;6474;53.474;9.894;2022-11-15T12:10:19;3.30;;;3.10;;
12818;SDS011;6474;53.474;9.894;2022-11-15T12:12:54;5.17;;;3.80;;
12818;SDS011;6474;53.474;9.894;2022-11-15T12:15:26;2.90;;;2.70;;
12818;SDS011;6474;53.474;9.894;2022-11-15T12:17:58;4.00;;;3.57;;
12818;SDS011;6474;53.474;9.894;2022-11-15T12:20:29;3.00;;;2.77;;
12818;SDS011;6474;53.474;9.894;2022-11-15T12:23:01;4.03;;;2.90;;
12818;SDS011;6474;53.474;9.894;2022-11-15T12:25:36;3.23;;;2.93;;
12818;SDS011;6474;53.474;9.894;2022-11-15T12:28:13;2.97;;;2.77;;
12818;SDS011;6474;53.474;9.894;2022-11-15T12:30:48;3.67;;;2.80;;
12818;SDS011;6474;53.474;9.894;2022-11-15T12:33:29;2.97;;;2.77;;
12818;SDS011;6474;53.474;9.894;2022-11-15T12:35:59;5.33;;;3.00;;
12818;SDS011;6474;53.474;9.894;2022-11-15T12:41:20;2.50;;;2.40;;
12818;SDS011;6474;53.474;9.894;2022-11-15T12:43:49;2.20;;;2.10;;
12818;SDS011;6474;53.474;9.894;2022-11-15T12:46:22;3.60;;;3.40;;
12818;SDS011;6474;53.474;9.894;2022-11-15T12:49:23;3.10;;;2.80;;
12818;SDS011;6474;53.474;9.894;2022-11-15T12:52:09;4.37;;;2.90;;
12818;SDS011;6474;53.474;9.894;2022-11-15T12:54:51;2.83;;;2.40;;
12818;SDS011;6474;53.474;9.894;2022-11-15T12:57:39;2.90;;;2.70;;
12818;SDS011;6474;53.474;9.894;2022-11-15T13:03:21;4.43;;;3.20;;
12818;SDS011;6474;53.474;9.894;2022-11-15T13:08:59;2.40;;;2.30;;
12818;SDS011;6474;53.474;9.894;2022-11-15T13:11:47;2.97;;;2.77;;
12818;SDS011;6474;53.474;9.894;2022-11-15T13:17:15;3.30;;;2.40;;
12818;SDS011;6474;53.474;9.894;2022-11-15T13:19:53;2.73;;;2.53;;
12818;SDS011;6474;53.474;9.894;2022-11-15T13:22:25;3.33;;;3.13;;
12818;SDS011;6474;53.474;9.894;2022-11-15T13:25:16;2.87;;;2.77;;
12818;SDS011;6474;53.474;9.894;2022-11-15T13:27:47;4.20;;;3.10;;
12818;SDS011;6474;53.474;9.894;2022-11-15T13:30:19;3.40;;;3.20;;
12818;SDS011;6474;53.474;9.894;2022-11-15T13:32:48;4.90;;;3.10;;
12818;SDS011;6474;53.474;9.894;2022-11-15T13:35:19;4.27;;;3.53;;
12818;SDS011;6474;53.474;9.894;2022-11-15T13:37:49;4.63;;;3.80;;
12818;SDS011;6474;53.474;9.894;2022-11-15T13:40:22;4.57;;;3.80;;
12818;SDS011;6474;53.474;9.894;2022-11-15T13:42:53;4.93;;;4.13;;
12818;SDS011;6474;53.474;9.894;2022-11-15T13:45:21;5.07;;;3.73;;
12818;SDS011;6474;53.474;9.894;2022-11-15T13:47:53;3.80;;;3.60;;
12818;SDS011;6474;53.474;9.894;2022-11-15T13:50:23;6.63;;;3.37;;
12818;SDS011;6474;53.474;9.894;2022-11-15T13:52:55;5.93;;;3.77;;
12818;SDS011;6474;53.474;9.894;2022-11-15T13:55:27;4.53;;;3.50;;
12818;SDS011;6474;53.474;9.894;2022-11-15T13:57:59;3.40;;;3.10;;
12818;SDS011;6474;53.474;9.894;2022-11-15T14:00:34;5.07;;;3.43;;
12818;SDS011;6474;53.474;9.894;2022-11-15T14:03:05;3.63;;;3.33;;
12818;SDS011;6474;53.474;9.894;2022-11-15T14:05:40;2.97;;;2.77;;
12818;SDS011;6474;53.474;9.894;2022-11-15T14:08:13;4.13;;;2.90;;
12818;SDS011;6474;53.474;9.894;2022-11-15T14:16:32;4.30;;;3.90;;
12818;SDS011;6474;53.474;9.894;2022-11-15T14:19:02;4.03;;;3.60;;
12818;SDS011;6474;53.474;9.894;2022-11-15T14:21:31;3.53;;;3.33;;
12818;SDS011;6474;53.474;9.894;2022-11-15T14:24:15;3.57;;;3.37;;
12818;SDS011;6474;53.474;9.894;2022-11-15T14:26:43;3.80;;;2.67;;
12818;SDS011;6474;53.474;9.894;2022-11-15T14:29:25;4.40;;;3.40;;
12818;SDS011;6474;53.474;9.894;2022-11-15T14:32:05;2.87;;;2.60;;
12818;SDS011;6474;53.474;9.894;2022-11-15T14:34:38;3.57;;;3.03;;
12818;SDS011;6474;53.474;9.894;2022-11-15T14:37:08;2.70;;;2.53;;
12818;SDS011;6474;53.474;9.894;2022-11-15T14:39:45;5.50;;;3.37;;
12818;SDS011;6474;53.474;9.894;2022-11-15T14:42:13;3.70;;;2.97;;
12818;SDS011;6474;53.474;9.894;2022-11-15T14:44:42;3.17;;;2.97;;
12818;SDS011;6474;53.474;9.894;2022-11-15T14:47:11;2.90;;;2.70;;
12818;SDS011;6474;53.474;9.894;2022-11-15T14:49:39;3.47;;;3.27;;
12818;SDS011;6474;53.474;9.894;2022-11-15T14:52:11;3.07;;;2.87;;
12818;SDS011;6474;53.474;9.894;2022-11-15T14:54:57;3.17;;;2.90;;
12818;SDS011;6474;53.474;9.894;2022-11-15T14:57:27;5.20;;;3.33;;
12818;SDS011;6474;53.474;9.894;2022-11-15T14:59:56;2.70;;;2.60;;
12818;SDS011;6474;53.474;9.894;2022-11-15T15:02:24;3.10;;;2.80;;
12818;SDS011;6474;53.474;9.894;2022-11-15T15:04:53;3.53;;;3.33;;
12818;SDS011;6474;53.474;9.894;2022-11-15T15:07:21;3.80;;;3.50;;
12818;SDS011;6474;53.474;9.894;2022-11-15T15:09:49;3.53;;;3.20;;
12818;SDS011;6474;53.474;9.894;2022-11-15T15:12:18;3.80;;;3.50;;
12818;SDS011;6474;53.474;9.894;2022-11-15T15:14:47;3.47;;;3.27;;
12818;SDS011;6474;53.474;9.894;2022-11-15T15:17:18;3.23;;;3.07;;
12818;SDS011;6474;53.474;9.894;2022-11-15T15:19:45;4.07;;;3.77;;
12818;SDS011;6474;53.474;9.894;2022-11-15T15:22:14;3.60;;;3.40;;
12818;SDS011;6474;53.474;9.894;2022-11-15T15:24:43;3.33;;;2.97;;
12818;SDS011;6474;53.474;9.894;2022-11-15T15:27:11;5.50;;;4.03;;
12818;SDS011;6474;53.474;9.894;2022-11-15T15:29:39;3.83;;;3.43;;
12818;SDS011;6474;53.474;9.894;2022-11-15T15:32:07;6.23;;;3.63;;
12818;SDS011;6474;53.474;9.894;2022-11-15T15:34:37;6.23;;;3.83;;
12818;SDS011;6474;53.474;9.894;2022-11-15T15:37:19;4.07;;;3.30;;
12818;SDS011;6474;53.474;9.894;2022-11-15T15:39:50;5.37;;;4.00;;
12818;SDS011;6474;53.474;9.894;2022-11-15T15:42:18;7.97;;;4.57;;
12818;SDS011;6474;53.474;9.894;2022-11-15T15:44:46;6.57;;;4.07;;
12818;SDS011;6474;53.474;9.894;2022-11-15T15:47:15;4.03;;;3.73;;